sensor_id;sensor_type;location;lat;lon;timestamp;P1;P2;P0
73241;PMS5003;65659;49.234;-2.094;2023-03-01T00:00:25;4;4;
73241;PMS5003;65659;49.234;-2.094;2023-03-01T00:02:51;5;4;
73241;PMS5003;65659;49.234;-2.094;2023-03-01T00:05:17;4;4;
73241;PMS5003;65659;49.234;-2.094;2023-03-01T00:07:43;5;5;
73241;PMS5003;65659;49.234;-2.094;2023-03-01T00:10:09;6;5;
73241;PMS5003;65659;49.234;-2.094;2023-03-01T00:12:34;5;4;
73241;PMS5003;65659;49.234;-2.094;2023-03-01T00:15:00;5;5;
73241;PMS5003;65659;49.234;-2.094;2023-03-01T00:17:27;4;4;
73241;PMS5003;65659;49.234;-2.094;2023-03-01T00:19:51;5;4;
73241;PMS5003;65659;49.234;-2.094;2023-03-01T00:22:17;5;5;
73241;PMS5003;65659;49.234;-2.094;2023-03-01T00:24:43;5;5;
73241;PMS5003;65659;49.234;-2.094;2023-03-01T00:27:09;5;5;
73241;PMS5003;65659;49.234;-2.094;2023-03-01T00:29:35;4;4;
73241;PMS5003;65659;49.234;-2.094;2023-03-01T00:32:00;5;5;
73241;PMS5003;65659;49.234;-2.094;2023-03-01T00:34:26;6;6;
73241;PMS5003;65659;49.234;-2.094;2023-03-01T00:36:52;5;4;
73241;PMS5003;65659;49.234;-2.094;2023-03-01T00:39:18;5;5;
73241;PMS5003;65659;49.234;-2.094;2023-03-01T00:41:43;6;6;
73241;PMS5003;65659;49.234;-2.094;2023-03-01T00:44:09;5;5;
73241;PMS5003;65659;49.234;-2.094;2023-03-01T00:46:35;3;3;
73241;PMS5003;65659;49.234;-2.094;2023-03-01T00:49:00;6;6;
73241;PMS5003;65659;49.234;-2.094;2023-03-01T00:51:27;4;4;
73241;PMS5003;65659;49.234;-2.094;2023-03-01T00:53:53;5;5;
73241;PMS5003;65659;49.234;-2.094;2023-03-01T00:56:18;5;5;
73241;PMS5003;65659;49.234;-2.094;2023-03-01T00:58:43;3;3;
73241;PMS5003;65659;49.234;-2.094;2023-03-01T01:01:10;6;6;
73241;PMS5003;65659;49.234;-2.094;2023-03-01T01:03:35;4;4;
73241;PMS5003;65659;49.234;-2.094;2023-03-01T01:06:01;5;4;
73241;PMS5003;65659;49.234;-2.094;2023-03-01T01:08:26;4;4;
73241;PMS5003;65659;49.234;-2.094;2023-03-01T01:10:53;4;4;
73241;PMS5003;65659;49.234;-2.094;2023-03-01T01:13:18;4;4;
73241;PMS5003;65659;49.234;-2.094;2023-03-01T01:15:44;4;4;
73241;PMS5003;65659;49.234;-2.094;2023-03-01T01:18:10;4;4;
73241;PMS5003;65659;49.234;-2.094;2023-03-01T01:20:35;5;5;
73241;PMS5003;65659;49.234;-2.094;2023-03-01T01:23:01;6;6;
73241;PMS5003;65659;49.234;-2.094;2023-03-01T01:25:27;5;5;
73241;PMS5003;65659;49.234;-2.094;2023-03-01T01:27:53;5;5;
73241;PMS5003;65659;49.234;-2.094;2023-03-01T01:30:18;4;4;
73241;PMS5003;65659;49.234;-2.094;2023-03-01T01:32:44;3;3;
73241;PMS5003;65659;49.234;-2.094;2023-03-01T01:35:10;5;5;
73241;PMS5003;65659;49.234;-2.094;2023-03-01T01:37:35;2;2;
73241;PMS5003;65659;49.234;-2.094;2023-03-01T01:40:02;3;3;
73241;PMS5003;65659;49.234;-2.094;2023-03-01T01:42:27;3;3;
73241;PMS5003;65659;49.234;-2.094;2023-03-01T01:47:19;5;5;
73241;PMS5003;65659;49.234;-2.094;2023-03-01T01:49:45;4;4;
73241;PMS5003;65659;49.234;-2.094;2023-03-01T01:52:11;6;5;
73241;PMS5003;65659;49.234;-2.094;2023-03-01T01:54:38;5;4;
73241;PMS5003;65659;49.234;-2.094;2023-03-01T01:57:02;5;5;
73241;PMS5003;65659;49.234;-2.094;2023-03-01T01:59:27;4;4;
73241;PMS5003;65659;49.234;-2.094;2023-03-01T02:01:53;6;6;
73241;PMS5003;65659;49.234;-2.094;2023-03-01T02:04:19;5;5;
73241;PMS5003;65659;49.234;-2.094;2023-03-01T02:06:46;5;5;
73241;PMS5003;65659;49.234;-2.094;2023-03-01T02:09:11;4;4;
73241;PMS5003;65659;49.234;-2.094;2023-03-01T02:11:36;5;5;
73241;PMS5003;65659;49.234;-2.094;2023-03-01T02:14:02;4;4;
73241;PMS5003;65659;49.234;-2.094;2023-03-01T02:16:28;4;4;
73241;PMS5003;65659;49.234;-2.094;2023-03-01T02:18:54;5;5;
73241;PMS5003;65659;49.234;-2.094;2023-03-01T02:21:26;4;4;
73241;PMS5003;65659;49.234;-2.094;2023-03-01T02:23:45;3;3;
73241;PMS5003;65659;49.234;-2.094;2023-03-01T02:26:11;4;4;
73241;PMS5003;65659;49.234;-2.094;2023-03-01T02:28:37;3;3;
73241;PMS5003;65659;49.234;-2.094;2023-03-01T02:31:03;4;4;
73241;PMS5003;65659;49.234;-2.094;2023-03-01T02:33:28;4;4;
73241;PMS5003;65659;49.234;-2.094;2023-03-01T02:35:54;4;4;
73241;PMS5003;65659;49.234;-2.094;2023-03-01T02:38:19;4;4;
73241;PMS5003;65659;49.234;-2.094;2023-03-01T02:40:45;3;3;
73241;PMS5003;65659;49.234;-2.094;2023-03-01T02:43:11;5;5;
73241;PMS5003;65659;49.234;-2.094;2023-03-01T02:45:37;3;3;
73241;PMS5003;65659;49.234;-2.094;2023-03-01T02:48:03;4;4;
73241;PMS5003;65659;49.234;-2.094;2023-03-01T02:52:55;3;3;
73241;PMS5003;65659;49.234;-2.094;2023-03-01T02:55:20;5;4;
73241;PMS5003;65659;49.234;-2.094;2023-03-01T02:57:46;3;3;
73241;PMS5003;65659;49.234;-2.094;2023-03-01T03:00:12;4;4;
73241;PMS5003;65659;49.234;-2.094;2023-03-01T03:02:37;3;3;
73241;PMS5003;65659;49.234;-2.094;2023-03-01T03:05:04;4;4;
73241;PMS5003;65659;49.234;-2.094;2023-03-01T03:07:28;5;5;
73241;PMS5003;65659;49.234;-2.094;2023-03-01T03:09:54;4;4;
73241;PMS5003;65659;49.234;-2.094;2023-03-01T03:12:20;4;4;
73241;PMS5003;65659;49.234;-2.094;2023-03-01T03:14:46;5;5;
73241;PMS5003;65659;49.234;-2.094;2023-03-01T03:17:11;3;3;
73241;PMS5003;65659;49.234;-2.094;2023-03-01T03:19:37;4;4;
73241;PMS5003;65659;49.234;-2.094;2023-03-01T03:22:03;5;5;
73241;PMS5003;65659;49.234;-2.094;2023-03-01T03:24:29;4;4;
73241;PMS5003;65659;49.234;-2.094;2023-03-01T03:26:54;4;4;
73241;PMS5003;65659;49.234;-2.094;2023-03-01T03:29:20;4;4;
73241;PMS5003;65659;49.234;-2.094;2023-03-01T03:31:46;4;4;
73241;PMS5003;65659;49.234;-2.094;2023-03-01T03:34:12;4;4;
73241;PMS5003;65659;49.234;-2.094;2023-03-01T03:36:37;4;4;
73241;PMS5003;65659;49.234;-2.094;2023-03-01T03:39:03;4;4;
73241;PMS5003;65659;49.234;-2.094;2023-03-01T03:41:29;4;4;
73241;PMS5003;65659;49.234;-2.094;2023-03-01T03:43:55;5;4;
73241;PMS5003;65659;49.234;-2.094;2023-03-01T03:46:20;3;3;
73241;PMS5003;65659;49.234;-2.094;2023-03-01T03:48:46;4;4;
73241;PMS5003;65659;49.234;-2.094;2023-03-01T03:51:12;4;4;
73241;PMS5003;65659;49.234;-2.094;2023-03-01T03:53:37;5;5;
73241;PMS5003;65659;49.234;-2.094;2023-03-01T03:56:03;4;4;
73241;PMS5003;65659;49.234;-2.094;2023-03-01T03:58:29;4;4;
73241;PMS5003;65659;49.234;-2.094;2023-03-01T04:00:55;4;3;
73241;PMS5003;65659;49.234;-2.094;2023-03-01T04:03:21;4;4;
73241;PMS5003;65659;49.234;-2.094;2023-03-01T04:05:46;4;4;
73241;PMS5003;65659;49.234;-2.094;2023-03-01T04:08:12;4;4;
73241;PMS5003;65659;49.234;-2.094;2023-03-01T04:10:38;4;4;
73241;PMS5003;65659;49.234;-2.094;2023-03-01T04:13:04;3;3;
73241;PMS5003;65659;49.234;-2.094;2023-03-01T04:15:30;3;3;
73241;PMS5003;65659;49.234;-2.094;2023-03-01T04:17:55;3;3;
73241;PMS5003;65659;49.234;-2.094;2023-03-01T04:20:22;3;3;
73241;PMS5003;65659;49.234;-2.094;2023-03-01T04:22:47;1;1;
73241;PMS5003;65659;49.234;-2.094;2023-03-01T04:25:12;3;3;
73241;PMS5003;65659;49.234;-2.094;2023-03-01T04:27:38;4;4;
73241;PMS5003;65659;49.234;-2.094;2023-03-01T04:30:04;4;3;
73241;PMS5003;65659;49.234;-2.094;2023-03-01T04:32:30;2;2;
73241;PMS5003;65659;49.234;-2.094;2023-03-01T04:34:55;3;3;
73241;PMS5003;65659;49.234;-2.094;2023-03-01T04:37:21;3;3;
73241;PMS5003;65659;49.234;-2.094;2023-03-01T04:39:47;3;3;
73241;PMS5003;65659;49.234;-2.094;2023-03-01T04:42:13;3;3;
73241;PMS5003;65659;49.234;-2.094;2023-03-01T04:44:38;4;4;
73241;PMS5003;65659;49.234;-2.094;2023-03-01T04:47:04;3;3;
73241;PMS5003;65659;49.234;-2.094;2023-03-01T04:49:30;4;4;
73241;PMS5003;65659;49.234;-2.094;2023-03-01T04:51:55;3;2;
73241;PMS5003;65659;49.234;-2.094;2023-03-01T04:54:21;5;5;
73241;PMS5003;65659;49.234;-2.094;2023-03-01T04:56:47;5;4;
73241;PMS5003;65659;49.234;-2.094;2023-03-01T04:59:13;4;4;
73241;PMS5003;65659;49.234;-2.094;2023-03-01T05:01:38;4;4;
73241;PMS5003;65659;49.234;-2.094;2023-03-01T05:04:04;3;3;
73241;PMS5003;65659;49.234;-2.094;2023-03-01T05:06:30;3;3;
73241;PMS5003;65659;49.234;-2.094;2023-03-01T05:08:56;2;2;
73241;PMS5003;65659;49.234;-2.094;2023-03-01T05:11:21;3;3;
73241;PMS5003;65659;49.234;-2.094;2023-03-01T05:13:47;4;4;
73241;PMS5003;65659;49.234;-2.094;2023-03-01T05:16:13;3;3;
73241;PMS5003;65659;49.234;-2.094;2023-03-01T05:18:39;3;3;
73241;PMS5003;65659;49.234;-2.094;2023-03-01T05:21:05;3;3;
73241;PMS5003;65659;49.234;-2.094;2023-03-01T05:23:30;4;4;
73241;PMS5003;65659;49.234;-2.094;2023-03-01T05:25:57;4;4;
73241;PMS5003;65659;49.234;-2.094;2023-03-01T05:28:22;3;3;
73241;PMS5003;65659;49.234;-2.094;2023-03-01T05:30:47;4;4;
73241;PMS5003;65659;49.234;-2.094;2023-03-01T05:33:13;3;3;
73241;PMS5003;65659;49.234;-2.094;2023-03-01T05:35:39;4;4;
73241;PMS5003;65659;49.234;-2.094;2023-03-01T05:38:05;4;4;
73241;PMS5003;65659;49.234;-2.094;2023-03-01T05:40:32;2;2;
73241;PMS5003;65659;49.234;-2.094;2023-03-01T05:42:56;3;3;
73241;PMS5003;65659;49.234;-2.094;2023-03-01T05:45:22;3;3;
73241;PMS5003;65659;49.234;-2.094;2023-03-01T05:47:48;5;4;
73241;PMS5003;65659;49.234;-2.094;2023-03-01T05:50:14;5;4;
73241;PMS5003;65659;49.234;-2.094;2023-03-01T05:52:39;3;3;
73241;PMS5003;65659;49.234;-2.094;2023-03-01T05:55:05;4;4;
73241;PMS5003;65659;49.234;-2.094;2023-03-01T05:57:31;4;4;
73241;PMS5003;65659;49.234;-2.094;2023-03-01T05:59:56;5;4;
73241;PMS5003;65659;49.234;-2.094;2023-03-01T06:02:22;4;4;
73241;PMS5003;65659;49.234;-2.094;2023-03-01T06:04:48;5;5;
73241;PMS5003;65659;49.234;-2.094;2023-03-01T06:07:14;4;4;
73241;PMS5003;65659;49.234;-2.094;2023-03-01T06:09:39;4;4;
73241;PMS5003;65659;49.234;-2.094;2023-03-01T06:12:05;5;4;
73241;PMS5003;65659;49.234;-2.094;2023-03-01T06:14:31;4;4;
73241;PMS5003;65659;49.234;-2.094;2023-03-01T06:16:57;5;5;
73241;PMS5003;65659;49.234;-2.094;2023-03-01T06:19:22;5;5;
73241;PMS5003;65659;49.234;-2.094;2023-03-01T06:21:48;4;4;
73241;PMS5003;65659;49.234;-2.094;2023-03-01T06:24:14;4;4;
73241;PMS5003;65659;49.234;-2.094;2023-03-01T06:26:40;3;3;
73241;PMS5003;65659;49.234;-2.094;2023-03-01T06:29:05;6;5;
73241;PMS5003;65659;49.234;-2.094;2023-03-01T06:31:31;3;3;
73241;PMS5003;65659;49.234;-2.094;2023-03-01T06:33:57;4;4;
73241;PMS5003;65659;49.234;-2.094;2023-03-01T06:36:23;6;5;
73241;PMS5003;65659;49.234;-2.094;2023-03-01T06:38:48;3;3;
73241;PMS5003;65659;49.234;-2.094;2023-03-01T06:41:14;6;6;
73241;PMS5003;65659;49.234;-2.094;2023-03-01T06:43:40;3;3;
73241;PMS5003;65659;49.234;-2.094;2023-03-01T06:46:06;5;5;
73241;PMS5003;65659;49.234;-2.094;2023-03-01T06:48:31;5;5;
73241;PMS5003;65659;49.234;-2.094;2023-03-01T06:50:58;4;4;
73241;PMS5003;65659;49.234;-2.094;2023-03-01T06:53:23;6;6;
73241;PMS5003;65659;49.234;-2.094;2023-03-01T06:55:53;4;4;
73241;PMS5003;65659;49.234;-2.094;2023-03-01T06:58:14;5;4;
73241;PMS5003;65659;49.234;-2.094;2023-03-01T07:00:40;4;4;
73241;PMS5003;65659;49.234;-2.094;2023-03-01T07:03:06;5;5;
73241;PMS5003;65659;49.234;-2.094;2023-03-01T07:05:32;6;5;
73241;PMS5003;65659;49.234;-2.094;2023-03-01T07:07:57;5;5;
73241;PMS5003;65659;49.234;-2.094;2023-03-01T07:10:23;4;4;
73241;PMS5003;65659;49.234;-2.094;2023-03-01T07:12:49;6;5;
73241;PMS5003;65659;49.234;-2.094;2023-03-01T07:15:15;6;5;
73241;PMS5003;65659;49.234;-2.094;2023-03-01T07:17:41;6;5;
73241;PMS5003;65659;49.234;-2.094;2023-03-01T07:20:07;6;6;
73241;PMS5003;65659;49.234;-2.094;2023-03-01T07:22:32;5;5;
73241;PMS5003;65659;49.234;-2.094;2023-03-01T07:24:58;6;6;
73241;PMS5003;65659;49.234;-2.094;2023-03-01T07:27:23;4;4;
73241;PMS5003;65659;49.234;-2.094;2023-03-01T07:29:49;5;5;
73241;PMS5003;65659;49.234;-2.094;2023-03-01T07:32:15;4;4;
73241;PMS5003;65659;49.234;-2.094;2023-03-01T07:34:41;4;4;
73241;PMS5003;65659;49.234;-2.094;2023-03-01T07:37:06;3;3;
73241;PMS5003;65659;49.234;-2.094;2023-03-01T07:39:32;6;6;
73241;PMS5003;65659;49.234;-2.094;2023-03-01T07:41:58;7;7;
73241;PMS5003;65659;49.234;-2.094;2023-03-01T07:44:24;5;5;
73241;PMS5003;65659;49.234;-2.094;2023-03-01T07:46:49;5;5;
73241;PMS5003;65659;49.234;-2.094;2023-03-01T07:49:15;5;5;
73241;PMS5003;65659;49.234;-2.094;2023-03-01T07:51:42;3;3;
73241;PMS5003;65659;49.234;-2.094;2023-03-01T07:54:07;7;6;
73241;PMS5003;65659;49.234;-2.094;2023-03-01T07:56:32;6;5;
73241;PMS5003;65659;49.234;-2.094;2023-03-01T07:58:59;5;5;
73241;PMS5003;65659;49.234;-2.094;2023-03-01T08:01:24;5;5;
73241;PMS5003;65659;49.234;-2.094;2023-03-01T08:03:50;5;5;
73241;PMS5003;65659;49.234;-2.094;2023-03-01T08:06:16;6;6;
73241;PMS5003;65659;49.234;-2.094;2023-03-01T08:08:41;7;6;
73241;PMS5003;65659;49.234;-2.094;2023-03-01T08:11:08;4;4;
73241;PMS5003;65659;49.234;-2.094;2023-03-01T08:13:33;5;5;
73241;PMS5003;65659;49.234;-2.094;2023-03-01T08:16:00;7;7;
73241;PMS5003;65659;49.234;-2.094;2023-03-01T08:18:24;6;6;
73241;PMS5003;65659;49.234;-2.094;2023-03-01T08:20:50;6;6;
73241;PMS5003;65659;49.234;-2.094;2023-03-01T08:23:16;7;7;
73241;PMS5003;65659;49.234;-2.094;2023-03-01T08:25:41;8;8;
73241;PMS5003;65659;49.234;-2.094;2023-03-01T08:28:07;8;7;
73241;PMS5003;65659;49.234;-2.094;2023-03-01T08:30:33;6;6;
73241;PMS5003;65659;49.234;-2.094;2023-03-01T08:32:59;6;6;
73241;PMS5003;65659;49.234;-2.094;2023-03-01T08:35:25;7;7;
73241;PMS5003;65659;49.234;-2.094;2023-03-01T08:37:50;5;5;
73241;PMS5003;65659;49.234;-2.094;2023-03-01T08:40:16;5;4;
73241;PMS5003;65659;49.234;-2.094;2023-03-01T08:42:42;5;5;
73241;PMS5003;65659;49.234;-2.094;2023-03-01T08:45:08;4;4;
73241;PMS5003;65659;49.234;-2.094;2023-03-01T08:47:33;7;7;
73241;PMS5003;65659;49.234;-2.094;2023-03-01T08:49:59;6;6;
73241;PMS5003;65659;49.234;-2.094;2023-03-01T08:52:25;6;6;
73241;PMS5003;65659;49.234;-2.094;2023-03-01T08:54:51;5;5;
73241;PMS5003;65659;49.234;-2.094;2023-03-01T08:57:16;6;6;
73241;PMS5003;65659;49.234;-2.094;2023-03-01T08:59:42;5;5;
73241;PMS5003;65659;49.234;-2.094;2023-03-01T09:02:10;5;5;
73241;PMS5003;65659;49.234;-2.094;2023-03-01T09:04:34;7;6;
73241;PMS5003;65659;49.234;-2.094;2023-03-01T09:06:59;5;5;
73241;PMS5003;65659;49.234;-2.094;2023-03-01T09:09:25;4;4;
73241;PMS5003;65659;49.234;-2.094;2023-03-01T09:11:51;5;5;
73241;PMS5003;65659;49.234;-2.094;2023-03-01T09:14:16;5;5;
73241;PMS5003;65659;49.234;-2.094;2023-03-01T09:16:42;6;5;
73241;PMS5003;65659;49.234;-2.094;2023-03-01T09:19:08;4;4;
73241;PMS5003;65659;49.234;-2.094;2023-03-01T09:21:34;5;5;
73241;PMS5003;65659;49.234;-2.094;2023-03-01T09:24:00;5;5;
73241;PMS5003;65659;49.234;-2.094;2023-03-01T09:26:25;5;5;
73241;PMS5003;65659;49.234;-2.094;2023-03-01T09:28:53;5;5;
73241;PMS5003;65659;49.234;-2.094;2023-03-01T09:31:18;5;5;
73241;PMS5003;65659;49.234;-2.094;2023-03-01T09:33:45;6;6;
73241;PMS5003;65659;49.234;-2.094;2023-03-01T09:36:11;6;6;
73241;PMS5003;65659;49.234;-2.094;2023-03-01T09:38:34;7;7;
73241;PMS5003;65659;49.234;-2.094;2023-03-01T09:41:00;6;6;
73241;PMS5003;65659;49.234;-2.094;2023-03-01T09:43:26;6;6;
73241;PMS5003;65659;49.234;-2.094;2023-03-01T09:45:52;4;4;
73241;PMS5003;65659;49.234;-2.094;2023-03-01T09:48:18;9;8;
73241;PMS5003;65659;49.234;-2.094;2023-03-01T09:50:43;7;7;
73241;PMS5003;65659;49.234;-2.094;2023-03-01T09:53:10;4;4;
73241;PMS5003;65659;49.234;-2.094;2023-03-01T09:55:37;5;5;
73241;PMS5003;65659;49.234;-2.094;2023-03-01T09:58:04;5;5;
73241;PMS5003;65659;49.234;-2.094;2023-03-01T10:00:29;8;8;
73241;PMS5003;65659;49.234;-2.094;2023-03-01T10:02:54;5;5;
73241;PMS5003;65659;49.234;-2.094;2023-03-01T10:07:44;6;6;
73241;PMS5003;65659;49.234;-2.094;2023-03-01T10:10:15;5;5;
73241;PMS5003;65659;49.234;-2.094;2023-03-01T10:12:37;4;4;
73241;PMS5003;65659;49.234;-2.094;2023-03-01T10:15:02;7;7;
73241;PMS5003;65659;49.234;-2.094;2023-03-01T10:17:30;7;6;
73241;PMS5003;65659;49.234;-2.094;2023-03-01T10:19:52;4;4;
73241;PMS5003;65659;49.234;-2.094;2023-03-01T10:22:18;5;5;
73241;PMS5003;65659;49.234;-2.094;2023-03-01T10:24:44;6;6;
73241;PMS5003;65659;49.234;-2.094;2023-03-01T10:27:11;8;8;
73241;PMS5003;65659;49.234;-2.094;2023-03-01T10:29:39;6;6;
73241;PMS5003;65659;49.234;-2.094;2023-03-01T10:32:01;7;7;
73241;PMS5003;65659;49.234;-2.094;2023-03-01T10:34:28;8;7;
73241;PMS5003;65659;49.234;-2.094;2023-03-01T10:36:53;7;7;
73241;PMS5003;65659;49.234;-2.094;2023-03-01T10:39:18;8;8;
73241;PMS5003;65659;49.234;-2.094;2023-03-01T10:41:52;6;6;
73241;PMS5003;65659;49.234;-2.094;2023-03-01T10:44:09;7;7;
73241;PMS5003;65659;49.234;-2.094;2023-03-01T10:46:36;9;9;
73241;PMS5003;65659;49.234;-2.094;2023-03-01T10:49:07;8;8;
73241;PMS5003;65659;49.234;-2.094;2023-03-01T10:51:26;8;8;
73241;PMS5003;65659;49.234;-2.094;2023-03-01T10:53:52;7;7;
73241;PMS5003;65659;49.234;-2.094;2023-03-01T10:56:18;9;8;
73241;PMS5003;65659;49.234;-2.094;2023-03-01T11:03:36;6;6;
73241;PMS5003;65659;49.234;-2.094;2023-03-01T11:06:03;9;8;
73241;PMS5003;65659;49.234;-2.094;2023-03-01T11:08:33;7;6;
73241;PMS5003;65659;49.234;-2.094;2023-03-01T11:10:52;6;6;
73241;PMS5003;65659;49.234;-2.094;2023-03-01T11:13:18;6;6;
73241;PMS5003;65659;49.234;-2.094;2023-03-01T11:15:44;6;6;
73241;PMS5003;65659;49.234;-2.094;2023-03-01T11:20:35;6;6;
73241;PMS5003;65659;49.234;-2.094;2023-03-01T11:23:02;8;8;
73241;PMS5003;65659;49.234;-2.094;2023-03-01T11:25:27;6;6;
73241;PMS5003;65659;49.234;-2.094;2023-03-01T11:27:54;7;7;
73241;PMS5003;65659;49.234;-2.094;2023-03-01T11:30:20;7;7;
73241;PMS5003;65659;49.234;-2.094;2023-03-01T11:32:45;9;7;
73241;PMS5003;65659;49.234;-2.094;2023-03-01T11:35:12;6;6;
73241;PMS5003;65659;49.234;-2.094;2023-03-01T11:37:38;7;7;
73241;PMS5003;65659;49.234;-2.094;2023-03-01T11:40:04;10;10;
73241;PMS5003;65659;49.234;-2.094;2023-03-01T11:42:29;6;6;
73241;PMS5003;65659;49.234;-2.094;2023-03-01T11:44:54;7;7;
73241;PMS5003;65659;49.234;-2.094;2023-03-01T11:47:22;8;7;
73241;PMS5003;65659;49.234;-2.094;2023-03-01T11:49:49;9;9;
73241;PMS5003;65659;49.234;-2.094;2023-03-01T11:52:12;7;7;
73241;PMS5003;65659;49.234;-2.094;2023-03-01T11:54:40;8;7;
73241;PMS5003;65659;49.234;-2.094;2023-03-01T11:57:03;6;6;
73241;PMS5003;65659;49.234;-2.094;2023-03-01T11:59:32;7;7;
73241;PMS5003;65659;49.234;-2.094;2023-03-01T12:01:58;8;8;
73241;PMS5003;65659;49.234;-2.094;2023-03-01T12:06:47;7;7;
73241;PMS5003;65659;49.234;-2.094;2023-03-01T12:09:17;9;8;
73241;PMS5003;65659;49.234;-2.094;2023-03-01T12:11:39;7;7;
73241;PMS5003;65659;49.234;-2.094;2023-03-01T12:14:06;7;7;
73241;PMS5003;65659;49.234;-2.094;2023-03-01T12:16:29;6;6;
73241;PMS5003;65659;49.234;-2.094;2023-03-01T12:19:00;6;6;
73241;PMS5003;65659;49.234;-2.094;2023-03-01T12:21:21;5;5;
73241;PMS5003;65659;49.234;-2.094;2023-03-01T12:23:52;6;6;
73241;PMS5003;65659;49.234;-2.094;2023-03-01T12:26:11;9;9;
73241;PMS5003;65659;49.234;-2.094;2023-03-01T12:28:44;6;6;
73241;PMS5003;65659;49.234;-2.094;2023-03-01T12:31:08;6;6;
73241;PMS5003;65659;49.234;-2.094;2023-03-01T12:33:29;6;6;
73241;PMS5003;65659;49.234;-2.094;2023-03-01T12:38:23;6;6;
73241;PMS5003;65659;49.234;-2.094;2023-03-01T12:40:48;7;7;
73241;PMS5003;65659;49.234;-2.094;2023-03-01T12:43:15;5;5;
73241;PMS5003;65659;49.234;-2.094;2023-03-01T12:45:42;8;7;
73241;PMS5003;65659;49.234;-2.094;2023-03-01T12:48:08;7;7;
73241;PMS5003;65659;49.234;-2.094;2023-03-01T12:50:29;9;8;
73241;PMS5003;65659;49.234;-2.094;2023-03-01T12:52:54;8;8;
73241;PMS5003;65659;49.234;-2.094;2023-03-01T12:55:24;10;9;
73241;PMS5003;65659;49.234;-2.094;2023-03-01T12:57:46;7;7;
73241;PMS5003;65659;49.234;-2.094;2023-03-01T13:00:17;10;9;
73241;PMS5003;65659;49.234;-2.094;2023-03-01T13:02:37;10;10;
73241;PMS5003;65659;49.234;-2.094;2023-03-01T13:05:06;7;7;
73241;PMS5003;65659;49.234;-2.094;2023-03-01T13:07:29;7;7;
73241;PMS5003;65659;49.234;-2.094;2023-03-01T13:09:55;7;7;
73241;PMS5003;65659;49.234;-2.094;2023-03-01T13:14:45;6;6;
73241;PMS5003;65659;49.234;-2.094;2023-03-01T13:19:36;7;7;
73241;PMS5003;65659;49.234;-2.094;2023-03-01T13:22:24;6;6;
73241;PMS5003;65659;49.234;-2.094;2023-03-01T13:24:28;6;6;
73241;PMS5003;65659;49.234;-2.094;2023-03-01T13:39:03;7;7;
73241;PMS5003;65659;49.234;-2.094;2023-03-01T13:43:54;9;8;
73241;PMS5003;65659;49.234;-2.094;2023-03-01T13:46:20;7;7;
73241;PMS5003;65659;49.234;-2.094;2023-03-01T13:48:45;6;6;
73241;PMS5003;65659;49.234;-2.094;2023-03-01T13:51:10;6;6;
73241;PMS5003;65659;49.234;-2.094;2023-03-01T13:53:37;6;6;
73241;PMS5003;65659;49.234;-2.094;2023-03-01T13:56:03;7;7;
73241;PMS5003;65659;49.234;-2.094;2023-03-01T13:58:28;5;5;
73241;PMS5003;65659;49.234;-2.094;2023-03-01T14:00:56;9;8;
73241;PMS5003;65659;49.234;-2.094;2023-03-01T14:03:19;8;8;
73241;PMS5003;65659;49.234;-2.094;2023-03-01T14:08:19;6;6;
73241;PMS5003;65659;49.234;-2.094;2023-03-01T14:13:04;10;9;
73241;PMS5003;65659;49.234;-2.094;2023-03-01T14:15:29;7;6;
73241;PMS5003;65659;49.234;-2.094;2023-03-01T14:17:56;8;8;
73241;PMS5003;65659;49.234;-2.094;2023-03-01T14:20:20;6;6;
73241;PMS5003;65659;49.234;-2.094;2023-03-01T14:22:45;7;6;
73241;PMS5003;65659;49.234;-2.094;2023-03-01T14:25:19;6;6;
73241;PMS5003;65659;49.234;-2.094;2023-03-01T14:27:37;9;8;
73241;PMS5003;65659;49.234;-2.094;2023-03-01T14:30:03;7;7;
73241;PMS5003;65659;49.234;-2.094;2023-03-01T14:32:29;6;6;
73241;PMS5003;65659;49.234;-2.094;2023-03-01T14:34:55;7;7;
73241;PMS5003;65659;49.234;-2.094;2023-03-01T14:37:21;8;7;
73241;PMS5003;65659;49.234;-2.094;2023-03-01T14:39:45;9;9;
73241;PMS5003;65659;49.234;-2.094;2023-03-01T14:42:11;6;6;
73241;PMS5003;65659;49.234;-2.094;2023-03-01T14:44:37;7;7;
73241;PMS5003;65659;49.234;-2.094;2023-03-01T14:47:02;7;7;
73241;PMS5003;65659;49.234;-2.094;2023-03-01T14:49:29;6;6;
73241;PMS5003;65659;49.234;-2.094;2023-03-01T14:51:56;6;6;
73241;PMS5003;65659;49.234;-2.094;2023-03-01T14:54:21;6;6;
73241;PMS5003;65659;49.234;-2.094;2023-03-01T14:56:46;7;7;
73241;PMS5003;65659;49.234;-2.094;2023-03-01T14:59:11;5;5;
73241;PMS5003;65659;49.234;-2.094;2023-03-01T15:01:37;5;5;
73241;PMS5003;65659;49.234;-2.094;2023-03-01T15:04:02;7;6;
73241;PMS5003;65659;49.234;-2.094;2023-03-01T15:06:28;6;5;
73241;PMS5003;65659;49.234;-2.094;2023-03-01T15:08:55;6;6;
73241;PMS5003;65659;49.234;-2.094;2023-03-01T15:11:21;6;6;
73241;PMS5003;65659;49.234;-2.094;2023-03-01T15:13:45;5;5;
73241;PMS5003;65659;49.234;-2.094;2023-03-01T15:16:12;5;5;
73241;PMS5003;65659;49.234;-2.094;2023-03-01T15:18:37;5;5;
73241;PMS5003;65659;49.234;-2.094;2023-03-01T15:21:07;6;6;
73241;PMS5003;65659;49.234;-2.094;2023-03-01T15:23:29;8;7;
73241;PMS5003;65659;49.234;-2.094;2023-03-01T15:25:54;7;6;
73241;PMS5003;65659;49.234;-2.094;2023-03-01T15:28:20;5;5;
73241;PMS5003;65659;49.234;-2.094;2023-03-01T15:30:45;4;4;
73241;PMS5003;65659;49.234;-2.094;2023-03-01T15:33:18;5;5;
73241;PMS5003;65659;49.234;-2.094;2023-03-01T15:35:40;5;5;
73241;PMS5003;65659;49.234;-2.094;2023-03-01T15:38:03;5;5;
73241;PMS5003;65659;49.234;-2.094;2023-03-01T15:40:29;7;7;
73241;PMS5003;65659;49.234;-2.094;2023-03-01T15:42:55;6;6;
73241;PMS5003;65659;49.234;-2.094;2023-03-01T15:45:21;4;4;
73241;PMS5003;65659;49.234;-2.094;2023-03-01T15:47:46;6;6;
73241;PMS5003;65659;49.234;-2.094;2023-03-01T15:50:15;5;5;
73241;PMS5003;65659;49.234;-2.094;2023-03-01T15:52:40;5;5;
73241;PMS5003;65659;49.234;-2.094;2023-03-01T15:55:04;5;5;
73241;PMS5003;65659;49.234;-2.094;2023-03-01T15:57:29;5;5;
73241;PMS5003;65659;49.234;-2.094;2023-03-01T15:59:55;7;7;
73241;PMS5003;65659;49.234;-2.094;2023-03-01T16:02:20;5;5;
73241;PMS5003;65659;49.234;-2.094;2023-03-01T16:04:46;3;3;
73241;PMS5003;65659;49.234;-2.094;2023-03-01T16:07:11;4;4;
73241;PMS5003;65659;49.234;-2.094;2023-03-01T16:09:37;4;4;
73241;PMS5003;65659;49.234;-2.094;2023-03-01T16:12:03;4;4;
73241;PMS5003;65659;49.234;-2.094;2023-03-01T16:14:29;5;4;
73241;PMS5003;65659;49.234;-2.094;2023-03-01T16:16:54;5;5;
73241;PMS5003;65659;49.234;-2.094;2023-03-01T16:19:20;4;4;
73241;PMS5003;65659;49.234;-2.094;2023-03-01T16:21:45;4;3;
73241;PMS5003;65659;49.234;-2.094;2023-03-01T16:24:11;3;3;
73241;PMS5003;65659;49.234;-2.094;2023-03-01T16:26:37;3;3;
73241;PMS5003;65659;49.234;-2.094;2023-03-01T16:29:02;3;3;
73241;PMS5003;65659;49.234;-2.094;2023-03-01T16:31:28;4;4;
73241;PMS5003;65659;49.234;-2.094;2023-03-01T16:33:55;3;3;
73241;PMS5003;65659;49.234;-2.094;2023-03-01T16:36:20;3;3;
73241;PMS5003;65659;49.234;-2.094;2023-03-01T16:38:46;3;3;
73241;PMS5003;65659;49.234;-2.094;2023-03-01T16:41:12;5;5;
73241;PMS5003;65659;49.234;-2.094;2023-03-01T16:43:37;3;3;
73241;PMS5003;65659;49.234;-2.094;2023-03-01T16:46:06;4;4;
73241;PMS5003;65659;49.234;-2.094;2023-03-01T16:48:28;3;2;
73241;PMS5003;65659;49.234;-2.094;2023-03-01T16:50:56;3;3;
73241;PMS5003;65659;49.234;-2.094;2023-03-01T16:53:20;3;2;
73241;PMS5003;65659;49.234;-2.094;2023-03-01T16:58:11;3;3;
73241;PMS5003;65659;49.234;-2.094;2023-03-01T17:00:37;3;3;
73241;PMS5003;65659;49.234;-2.094;2023-03-01T17:03:03;2;2;
73241;PMS5003;65659;49.234;-2.094;2023-03-01T17:05:28;3;3;
73241;PMS5003;65659;49.234;-2.094;2023-03-01T17:07:54;2;2;